Miedwie — C6XP5 — position and weather

sailwx.info

Track history (hours):
 
Tides and Currents Weather Stations Pressure Air Temp Water Temp Dewpoint Dewpoint Depression Visibility Wind Speed Wind Dir Waves Ship Positions

Miedwie

Last reported at 2016-Apr-29 15:13 UTC. Time now 2016-May-01 08:05 UTC.
Position N 39°06' W 009°51'.

Length 190 m; draft 9.5 m.

Type: Cargo ship. MMSI: 311018300.

Date/timePositionNaut miles runAvg speedWind from/ knotsBaromVisibWave heightAir tempDewpointWater temp
2016-Apr-29 15:13N 39°06' W 009°51'710.3
2016-Apr-29 14:33N 38°59' W 009°51'1110.6
2016-Apr-29 13:31N 38°48' W 009°51'1010.3
2016-Apr-29 12:33N 38°39' W 009°50'1110.6
2016-Apr-29 11:33N 38°28' W 009°47'1110.8
2016-Apr-29 10:30N 38°17' W 009°44'3710.9
2016-Apr-29 07:06N 37°41' W 009°33'611.1
2016-Apr-29 06:33N 37°35' W 009°31'6110.1
2016-Apr-29 00:31N 36°41' W 008°56'16710.4
2016-Apr-28 08:23N 35°58' W 005°36'7 8.7
2016-Apr-28 07:33N 35°60' W 005°27'8 8.1
2016-Apr-28 06:33N 36°02' W 005°18'26811.1
2016-Apr-27 06:30N 36°42' E 000°12'1111.3
2016-Apr-27 05:33N 36°44' E 000°25'4511.3
2016-Apr-27 01:32N 36°51' E 001°21'1110.9
2016-Apr-27 00:33N 36°53' E 001°34'1211.7
2016-Apr-26 23:33N 36°54' E 001°49'  
2016-Apr-24 09:29N 36°50' E 013°48'1010.3
2016-Apr-24 08:33N 36°47' E 013°60'1010.3
2016-Apr-24 07:33N 36°44' E 014°12'1010.4
2016-Apr-24 06:33N 36°42' E 014°24'  
2016-Apr-22 01:26N 36°21' E 026°14'43 1.0
2016-Apr-20 04:26N 36°37' E 027°03'9 9.0
2016-Apr-20 03:25N 36°34' E 026°52'2411.4
2016-Apr-20 01:18N 36°25' E 026°24'911.6
2016-Apr-20 00:33N 36°21' E 026°15'1212.1
2016-Apr-19 23:33N 36°14' E 026°02'1111.6
2016-Apr-19 22:33N 36°10' E 025°49'1711.8
2016-Apr-19 21:09N 36°09' E 025°29'711.8
2016-Apr-19 20:34N 36°08' E 025°20'1211.7
2016-Apr-19 19:33N 36°08' E 025°05'1211.7
2016-Apr-19 18:32N 36°07' E 024°51'2311.8
2016-Apr-19 16:34N 36°06' E 024°22'10 9.8
2016-Apr-19 15:33N 36°06' E 024°10'  
Track history (hours):
 
Tides and Currents Weather Stations Pressure Air Temp Water Temp Dewpoint Dewpoint Depression Visibility Wind Speed Wind Dir Waves Ship Positions

Miedwie

Last reported at 2016-Apr-29 15:13 UTC. Time now 2016-May-01 08:05 UTC.
Position N 39°06' W 009°51'.

Length 190 m; draft 9.5 m.

Type: Cargo ship. MMSI: 311018300.

Date/timePositionNaut miles runAvg speedWind from/ knotsBaromVisibWave heightAir tempDewpointWater temp
2016-Apr-29 15:13N 39°06' W 009°51'710.3
2016-Apr-29 14:33N 38°59' W 009°51'1110.6
2016-Apr-29 13:31N 38°48' W 009°51'1010.3
2016-Apr-29 12:33N 38°39' W 009°50'1110.6
2016-Apr-29 11:33N 38°28' W 009°47'1110.8
2016-Apr-29 10:30N 38°17' W 009°44'3710.9
2016-Apr-29 07:06N 37°41' W 009°33'611.1
2016-Apr-29 06:33N 37°35' W 009°31'6110.1
2016-Apr-29 00:31N 36°41' W 008°56'16710.4
2016-Apr-28 08:23N 35°58' W 005°36'7 8.7
2016-Apr-28 07:33N 35°60' W 005°27'8 8.1
2016-Apr-28 06:33N 36°02' W 005°18'26811.1
2016-Apr-27 06:30N 36°42' E 000°12'1111.3
2016-Apr-27 05:33N 36°44' E 000°25'4511.3
2016-Apr-27 01:32N 36°51' E 001°21'1110.9
2016-Apr-27 00:33N 36°53' E 001°34'1211.7
2016-Apr-26 23:33N 36°54' E 001°49'  
2016-Apr-24 09:29N 36°50' E 013°48'1010.3
2016-Apr-24 08:33N 36°47' E 013°60'1010.3
2016-Apr-24 07:33N 36°44' E 014°12'1010.4
2016-Apr-24 06:33N 36°42' E 014°24'  
2016-Apr-22 01:26N 36°21' E 026°14'43 1.0
2016-Apr-20 04:26N 36°37' E 027°03'9 9.0
2016-Apr-20 03:25N 36°34' E 026°52'2411.4
2016-Apr-20 01:18N 36°25' E 026°24'911.6
2016-Apr-20 00:33N 36°21' E 026°15'1212.1
2016-Apr-19 23:33N 36°14' E 026°02'1111.6
2016-Apr-19 22:33N 36°10' E 025°49'1711.8
2016-Apr-19 21:09N 36°09' E 025°29'711.8
2016-Apr-19 20:34N 36°08' E 025°20'1211.7
2016-Apr-19 19:33N 36°08' E 025°05'1211.7
2016-Apr-19 18:32N 36°07' E 024°51'2311.8
2016-Apr-19 16:34N 36°06' E 024°22'10 9.8
2016-Apr-19 15:33N 36°06' E 024°10'  

Dump ship's entire track history